This demonstration page uses our WeatherBlox Daily Observations layout. Learn more.

38.88101, -77.10428

Hourly Observations for October 19, 2016

Temp ( °F °C ) Dew Point ( °F °C ) Humidity (%) Winds ( mph kmh ) Pressure ( in mb ) Visibility ( mi km ) Precip ( " mm )
12:52 am 00:52 Clear 69 20.6 65 18.3 87 87 S 9 15 29.94 1014 10 16.09344 0 0
1:52 am 01:52 Mostly Clear 68 20 66 18.9 93 93 SSW 7 11 29.94 1014 10 16.09344 0 0
2:52 am 02:52 Mostly Clear 68 20 65 18.3 90 90 S 6 9 29.94 1014 10 16.09344 0 0
3:52 am 03:52 Mostly Clear 67 19.4 65 18.3 93 93 SSW 5 7 29.94 1014 10 16.09344 0 0
4:52 am 04:52 Mostly Clear 66 18.9 64 17.8 93 93 SW 6 9 29.94 1014 10 16.09344 0 0
5:52 am 05:52 Mostly Clear 65 18.3 64 17.8 97 97 SSW 7 11 29.97 1015 10 16.09344 0 0
6:52 am 06:52 Mostly Cloudy 67 19.4 65 18.3 93 93 S 7 11 29.97 1015 10 16.09344 0 0
7:52 am 07:52 Partly Cloudy 67 19.4 65 18.3 93 93 S 7 11 30 1016 10 16.09344 0 0
8:52 am 08:52 Partly Cloudy 68 20 66 18.9 93 93 S 6 9 30.03 1017 10 16.09344 0 0
9:52 am 09:52 Partly Cloudy 72 22.2 66 18.9 82 82 SSE 3 6 30.03 1017 10 16.09344 0 0
10:52 am 10:52 Partly Cloudy 74 23.3 66 18.9 76 76 E 3 6 30.03 1017 10 16.09344 0 0
11:52 am 11:52 Mostly Cloudy 76 24.4 65 18.3 69 69 Calm 30.03 1017 10 16.09344 0 0
12:52 pm 12:52 Partly Cloudy 84 28.9 65 18.3 53 53 N 10 17 30.03 1017 10 16.09344 0 0
1:52 pm 13:52 Mostly Sunny 87 30.6 65 18.3 48 48 N 5 7 30 1016 10 16.09344 0 0
2:52 pm 14:52 Partly Cloudy 86 30 65 18.3 49 49 N 7 11 30 1016 10 16.09344 0 0
3:52 pm 15:52 Partly Cloudy 84 28.9 66 18.9 55 55 E 5 7 30 1016 10 16.09344 0 0
4:52 pm 16:52 Mostly Cloudy 86 30 66 18.9 51 51 NNE 6 9 30 1016 10 16.09344 0 0
5:52 pm 17:52 Mostly Cloudy 84 28.9 66 18.9 55 55 NNE 3 6 30 1016 10 16.09344 0 0
6:52 pm 18:52 Partly Cloudy 79 26.1 66 18.9 65 65 S 6 9 30.03 1017 10 16.09344 0 0
7:52 pm 19:52 Mostly Clear 76 24.4 68 20 77 77 S 6 9 30.03 1017 10 16.09344 0 0
8:52 pm 20:52 Mostly Clear 76 24.4 68 20 77 77 S 5 7 30.03 1017 10 16.09344 0 0
9:52 pm 21:52 Partly Cloudy 74 23.3 68 20 82 82 S 3 6 30.06 1018 10 16.09344 0 0
10:52 pm 22:52 Mostly Cloudy 72 22.2 68 20 87 87 NNE 5 7 30.09 1019 10 16.09344 0 0
11:52 pm 23:52 Cloudy 73 22.8 68 20 84 84 Calm 30.06 1018 10 16.09344 0 0

Powered by AerisWeather